createdAt,value
2022-12-08T00:03:59.405Z,96330.55
2022-12-08T00:14:03.480Z,96337.38
2022-12-08T00:24:07.665Z,96338.99
2022-12-08T00:34:14.233Z,96346.61
2022-12-08T00:44:19.403Z,96351.20
2022-12-08T00:54:23.976Z,96360.08
2022-12-08T01:04:27.944Z,96360.20
2022-12-08T01:14:31.967Z,96362.23
2022-12-08T01:24:35.642Z,96363.23
2022-12-08T01:34:39.855Z,96366.77
2022-12-08T01:44:43.518Z,96368.66
2022-12-08T01:54:57.107Z,96368.21
2022-12-08T02:05:02.379Z,96366.56
2022-12-08T02:15:06.736Z,96370.05
2022-12-08T02:25:10.361Z,96366.42
2022-12-08T02:35:19.348Z,96358.83
2022-12-08T02:45:33.331Z,96377.34
2022-12-08T02:55:55.758Z,96385.80
2022-12-08T03:06:11.679Z,96388.55
2022-12-08T03:16:20.205Z,96383.66
2022-12-08T03:26:57.504Z,96379.09
2022-12-08T03:37:02.844Z,96377.82
2022-12-08T03:47:06.661Z,96379.06
2022-12-08T03:57:10.301Z,96375.41
2022-12-08T04:07:14.088Z,96373.67
2022-12-08T04:17:17.859Z,96373.31
2022-12-08T04:27:21.852Z,96371.69
2022-12-08T04:37:25.611Z,96382.10
2022-12-08T04:47:29.669Z,96375.29
2022-12-08T04:57:33.441Z,96368.83
2022-12-08T05:07:37.230Z,96365.45
2022-12-08T05:17:41.092Z,96355.04
2022-12-08T05:27:44.941Z,96351.54
2022-12-08T05:37:48.815Z,96348.79
2022-12-08T05:47:54.213Z,96351.21
2022-12-08T05:57:59.955Z,96359.75
2022-12-08T06:08:07.426Z,96366.44
2022-12-08T06:18:12.282Z,96376.48
2022-12-08T06:28:16.472Z,96380.37
2022-12-08T06:38:20.518Z,96375.84
2022-12-08T06:48:24.597Z,96378.32
2022-12-08T06:58:28.683Z,96381.98
2022-12-08T07:08:34.033Z,96388.19
2022-12-08T07:18:38.657Z,96395.91
2022-12-08T07:28:43.342Z,96392.58
2022-12-08T07:38:48.051Z,96396.88
2022-12-08T07:48:56.005Z,96408.23
2022-12-08T07:58:59.554Z,96405.56
2022-12-08T08:09:04.041Z,96406.91
2022-12-08T08:19:07.913Z,96405.02
2022-12-08T08:29:11.987Z,96404.71
2022-12-08T08:39:16.272Z,96399.39
2022-12-08T08:49:20.518Z,96405.80
2022-12-08T08:59:25.229Z,96408.90
2022-12-08T09:09:28.996Z,96399.46
2022-12-08T09:19:33.505Z,96394.02
2022-12-08T09:29:38.683Z,96384.73
2022-12-08T09:39:42.447Z,96381.23
2022-12-08T09:50:07.984Z,96372.39
2022-12-08T10:00:14.360Z,96367.20
2022-12-08T10:10:42.255Z,96356.30
2022-12-08T10:20:49.704Z,96340.34
2022-12-08T10:30:54.342Z,96329.27
2022-12-08T10:41:09.948Z,96321.27
2022-12-08T10:51:28.554Z,96312.20
2022-12-08T11:01:39.573Z,96297.17
2022-12-08T11:11:59.539Z,96290.39
2022-12-08T11:22:21.532Z,96286.38
2022-12-08T11:32:25.468Z,96280.28
2022-12-08T11:42:36.009Z,96286.57
2022-12-08T11:52:47.349Z,96272.79
2022-12-08T12:03:00.703Z,96274.70
2022-12-08T12:13:30.583Z,96266.66
2022-12-08T12:23:42.850Z,96270.45
2022-12-08T12:33:49.469Z,96268.88
2022-12-08T12:44:16.043Z,96261.23
2022-12-08T12:54:22.596Z,96260.15
2022-12-08T13:04:33.781Z,96254.95
2022-12-08T13:14:47.165Z,96246.31
2022-12-08T13:24:51.372Z,96241.46
2022-12-08T13:35:00.465Z,96235.42
2022-12-08T14:06:15.693Z,96233.59
2022-12-08T14:16:37.182Z,96238.98
2022-12-08T14:26:41.574Z,96242.28
2022-12-08T14:36:46.055Z,96241.56
2022-12-08T14:47:07.520Z,96246.91
2022-12-08T14:57:15.326Z,96232.81
2022-12-08T15:07:28.642Z,96226.84
2022-12-08T15:17:40.947Z,96216.06
2022-12-08T15:27:50.578Z,96213.84
2022-12-08T15:37:54.817Z,96222.88
2022-12-08T15:47:58.792Z,96222.95
2022-12-08T15:58:52.555Z,96227.27
2022-12-08T16:08:47.446Z,96223.59
2022-12-08T16:18:53.470Z,96224.07
2022-12-08T16:28:57.849Z,96229.36
2022-12-08T16:39:02.931Z,96230.23
2022-12-08T16:49:09.587Z,96223.30
2022-12-08T16:59:13.664Z,96211.11
2022-12-08T17:09:17.830Z,96205.34
2022-12-08T17:19:21.855Z,96216.39
2022-12-08T17:29:25.895Z,96222.20
2022-12-08T17:39:30.060Z,96223.48
2022-12-08T17:49:35.307Z,96207.33
2022-12-08T17:59:41.064Z,96196.45
2022-12-08T18:09:46.425Z,96197.57
2022-12-08T18:19:50.875Z,96185.64
2022-12-08T18:29:55.761Z,96172.09
2022-12-08T18:40:00.634Z,96165.44
2022-12-08T18:50:08.310Z,96173.57
2022-12-08T19:00:16.706Z,96162.44
2022-12-08T19:10:21.470Z,96163.05
2022-12-08T19:20:29.732Z,96158.77
2022-12-08T19:30:37.855Z,96157.98
2022-12-08T19:41:04.384Z,96161.68
2022-12-08T19:51:10.822Z,96159.55
2022-12-08T20:01:17.990Z,96150.90
2022-12-08T20:11:24.527Z,96149.48
2022-12-08T20:21:30.916Z,96154.15
2022-12-08T20:31:40.123Z,96151.86
2022-12-08T20:41:47.822Z,96145.88
2022-12-08T20:52:00.185Z,96146.17
2022-12-08T21:02:04.963Z,96149.48
2022-12-08T21:12:09.944Z,96142.91
2022-12-08T21:22:15.200Z,96138.81
2022-12-08T21:32:19.298Z,96143.89
2022-12-08T21:42:41.823Z,96145.62
2022-12-08T21:52:48.309Z,96136.11
2022-12-08T22:02:52.992Z,96137.52
2022-12-08T22:12:57.504Z,96126.48
2022-12-08T22:23:01.938Z,96121.40
2022-12-08T22:33:05.946Z,96119.25
2022-12-08T22:43:10.104Z,96119.54
2022-12-08T22:53:14.200Z,96116.11
2022-12-08T23:03:18.280Z,96114.42
2022-12-08T23:13:22.414Z,96114.13
2022-12-08T23:23:26.068Z,96114.77
2022-12-08T23:33:30.508Z,96113.91
2022-12-08T23:43:34.804Z,96101.89
2022-12-08T23:53:39.159Z,96098.30
